Time;durP1;ratioP1;P1;durP2;ratioP2;P2;SDS_P1;SDS_P2;PMS_P1;PMS_P2;Temp;Humidity;BMP_temperature;BMP_pressure;BME280_temperature;BME280_humidity;BME280_pressure;Samples;Min_cycle;Max_cycle;Signal;HPM_P1;HPM_P2
2022/09/06 00:02:23;;;;;;;3.17;2.40;;;13.50;1.00;;;;;;8340793;28;20194;-68
2022/09/06 00:06:26;;;;;;;3.40;2.20;;;13.60;1.00;;;;;;8343252;28;20198;-69
2022/09/06 00:10:28;;;;;;;3.47;2.33;;;13.70;99.90;;;;;;8343310;28;20201;-68
2022/09/06 00:14:29;;;;;;;3.83;2.10;;;13.80;99.90;;;;;;8342664;28;20205;-68
2022/09/06 00:18:29;;;;;;;3.77;2.03;;;13.80;99.90;;;;;;8343260;28;20229;-68
2022/09/06 00:22:31;;;;;;;2.97;2.20;;;13.90;99.90;;;;;;8343971;28;20208;-68
2022/09/06 00:26:31;;;;;;;4.33;2.10;;;13.90;99.90;;;;;;8341621;28;20220;-68
2022/09/06 00:30:33;;;;;;;6.23;1.97;;;13.90;99.90;;;;;;8343324;28;20182;-69
2022/09/06 00:34:34;;;;;;;4.57;1.90;;;14.00;99.90;;;;;;8347744;28;20186;-68
2022/09/06 00:38:35;;;;;;;2.47;1.70;;;14.10;99.90;;;;;;8345636;28;20193;-68
2022/09/06 00:42:36;;;;;;;2.80;1.90;;;14.10;99.90;;;;;;8347541;28;20611;-68
2022/09/06 00:46:41;;;;;;;3.00;2.00;;;14.10;99.90;;;;;;8346861;28;20209;-68
2022/09/06 00:50:44;;;;;;;2.40;2.10;;;14.00;99.90;;;;;;8341390;28;20269;-68
2022/09/06 00:54:46;;;;;;;5.20;2.27;;;14.00;99.90;;;;;;8350621;28;20190;-69
2022/09/06 00:58:48;;;;;;;2.90;1.53;;;14.00;99.90;;;;;;8356019;28;20568;-68
2022/09/06 01:02:49;;;;;;;2.17;1.53;;;14.00;99.90;;;;;;8346829;28;20555;-68
2022/09/06 01:07:11;;;;;;;2.60;1.97;;;14.00;99.90;;;;;;8350320;28;20248;-68
2022/09/06 01:11:31;;;;;;;3.03;2.17;;;14.00;99.90;;;;;;8364217;28;20177;-68
2022/09/06 01:15:38;;;;;;;3.17;1.70;;;14.00;99.90;;;;;;8348144;28;20186;-69
2022/09/06 01:20:26;;;;;;;3.50;2.13;;;14.00;99.90;;;;;;8355084;28;20316;-68
2022/09/06 01:24:30;;;;;;;2.73;1.63;;;14.00;99.90;;;;;;8343609;28;20198;-68
2022/09/06 01:28:34;;;;;;;3.83;1.90;;;14.00;99.90;;;;;;8347949;28;20217;-67
2022/09/06 01:32:41;;;;;;;1.70;1.20;;;14.00;99.90;;;;;;8348076;28;20181;-68
2022/09/06 01:36:56;;;;;;;2.80;1.50;;;14.00;99.90;;;;;;8338245;28;20186;-69
2022/09/06 01:40:57;;;;;;;3.07;1.80;;;13.90;99.90;;;;;;8347712;28;20382;-68
2022/09/06 01:45:05;;;;;;;3.37;1.40;;;13.70;99.90;;;;;;8342147;28;20189;-69
2022/09/06 01:49:32;;;;;;;2.43;1.80;;;13.60;99.90;;;;;;8359634;28;20225;-70
2022/09/06 01:53:58;;;;;;;1.57;1.30;;;13.70;99.90;;;;;;8346981;28;20287;-68
2022/09/06 01:58:17;;;;;;;2.73;1.30;;;13.70;99.90;;;;;;8346309;28;20195;-68
2022/09/06 02:02:32;;;;;;;3.77;1.80;;;13.60;99.90;;;;;;8358723;28;20186;-69
2022/09/06 02:06:46;;;;;;;3.30;1.97;;;13.70;99.90;;;;;;8347775;28;20382;-69
2022/09/06 02:10:55;;;;;;;2.13;1.37;;;13.80;99.90;;;;;;8379432;28;20197;-68
2022/09/06 02:15:06;;;;;;;2.93;1.50;;;13.90;99.90;;;;;;8349276;28;20210;-68
2022/09/06 02:19:12;;;;;;;2.13;1.57;;;13.90;99.90;;;;;;8350241;28;20253;-69
2022/09/06 02:23:15;;;;;;;2.63;1.60;;;13.90;99.90;;;;;;8351145;28;20197;-68
2022/09/06 02:27:16;;;;;;;2.87;1.43;;;14.00;99.90;;;;;;8349516;28;20216;-68
2022/09/06 02:31:49;;;;;;;2.67;1.63;;;14.00;99.90;;;;;;8344167;28;20185;-68
2022/09/06 02:35:52;;;;;;;1.77;1.20;;;14.00;99.90;;;;;;8345873;28;20185;-69
2022/09/06 02:39:56;;;;;;;2.87;1.80;;;14.00;99.90;;;;;;8342889;28;20190;-68
2022/09/06 02:43:57;;;;;;;3.47;1.30;;;14.00;99.90;;;;;;8346603;28;20221;-68
2022/09/06 02:47:57;;;;;;;1.87;1.37;;;14.00;99.90;;;;;;8345088;28;20210;-68
2022/09/06 02:51:58;;;;;;;3.07;1.83;;;14.00;99.90;;;;;;8347637;28;20228;-68
2022/09/06 02:55:59;;;;;;;2.10;1.40;;;14.00;99.90;;;;;;8347851;28;20193;-68
2022/09/06 03:00:00;;;;;;;2.17;1.70;;;14.00;99.90;;;;;;8345007;28;20189;-68
2022/09/06 03:04:01;;;;;;;3.67;1.13;;;13.90;99.90;;;;;;8341816;28;20190;-68
2022/09/06 03:08:02;;;;;;;1.63;1.23;;;13.90;99.90;;;;;;8348485;28;20213;-68
2022/09/06 03:12:03;;;;;;;2.30;1.40;;;13.90;99.90;;;;;;8344102;28;20209;-72
2022/09/06 03:16:04;;;;;;;2.43;1.47;;;13.80;99.90;;;;;;8345669;28;20190;-68
2022/09/06 03:20:05;;;;;;;5.10;1.60;;;13.80;99.90;;;;;;8345746;28;20200;-69
2022/09/06 03:24:06;;;;;;;3.33;1.40;;;13.80;99.90;;;;;;8345711;28;20185;-68
2022/09/06 03:28:07;;;;;;;3.87;1.53;;;13.80;99.90;;;;;;8345564;28;20273;-69
2022/09/06 03:32:07;;;;;;;2.53;1.30;;;13.70;99.90;;;;;;8343593;28;20188;-68
2022/09/06 03:36:08;;;;;;;2.90;1.47;;;13.70;99.90;;;;;;8346416;28;20178;-68
2022/09/06 03:40:10;;;;;;;2.57;1.50;;;13.70;99.90;;;;;;8347527;28;20261;-68
2022/09/06 03:44:10;;;;;;;2.23;1.50;;;13.70;99.90;;;;;;8349317;28;20258;-68
2022/09/06 03:48:11;;;;;;;4.50;1.70;;;13.70;99.90;;;;;;8346734;28;20237;-68
2022/09/06 03:52:13;;;;;;;3.73;2.00;;;13.80;99.90;;;;;;8344064;28;20191;-68
2022/09/06 03:56:14;;;;;;;4.33;2.20;;;13.70;99.90;;;;;;8344936;28;20194;-68
2022/09/06 04:00:15;;;;;;;4.90;1.73;;;13.80;99.90;;;;;;8341103;28;20224;-68
2022/09/06 04:04:16;;;;;;;4.60;2.00;;;13.80;99.90;;;;;;8342009;28;20268;-68
2022/09/06 04:08:16;;;;;;;2.93;1.80;;;13.80;99.90;;;;;;8344734;28;20210;-68
2022/09/06 04:12:17;;;;;;;3.37;1.73;;;13.70;99.90;;;;;;8344064;28;20253;-69
2022/09/06 04:16:18;;;;;;;3.40;1.57;;;13.70;99.90;;;;;;8334711;28;20182;-68
2022/09/06 04:20:19;;;;;;;3.00;1.70;;;13.60;99.90;;;;;;8343180;28;20228;-68
2022/09/06 04:24:20;;;;;;;2.80;1.50;;;13.60;99.90;;;;;;8343724;28;20196;-67
2022/09/06 04:28:21;;;;;;;2.90;1.63;;;13.60;99.90;;;;;;8349715;28;20337;-68
2022/09/06 04:32:22;;;;;;;2.67;1.40;;;13.60;99.90;;;;;;8352166;28;20189;-68
2022/09/06 04:36:23;;;;;;;2.13;1.40;;;13.60;99.90;;;;;;8353267;28;20186;-67
2022/09/06 04:40:23;;;;;;;2.57;1.63;;;13.70;99.90;;;;;;8340099;28;20182;-68
2022/09/06 04:44:24;;;;;;;1.60;1.20;;;13.80;99.90;;;;;;8349290;28;20193;-67
2022/09/06 04:48:25;;;;;;;2.43;1.30;;;13.90;99.90;;;;;;8349982;28;20266;-68
2022/09/06 04:52:26;;;;;;;1.97;1.40;;;14.00;99.90;;;;;;8339855;28;20190;-67
2022/09/06 04:56:29;;;;;;;2.10;1.30;;;14.00;99.90;;;;;;8348502;28;20191;-68
2022/09/06 05:00:32;;;;;;;3.27;1.37;;;14.10;99.90;;;;;;8354807;28;20244;-69
2022/09/06 05:04:32;;;;;;;3.30;1.77;;;14.00;99.90;;;;;;8346872;28;20192;-69
2022/09/06 05:08:39;;;;;;;2.70;1.40;;;14.00;99.90;;;;;;8349034;28;20214;-69
2022/09/06 05:12:40;;;;;;;3.97;1.40;;;13.90;1.00;;;;;;8346788;28;20211;-69
2022/09/06 05:16:40;;;;;;;3.73;1.57;;;13.70;1.00;;;;;;8348396;28;20190;-68
2022/09/06 05:20:41;;;;;;;4.23;1.90;;;13.70;1.00;;;;;;8350055;28;20228;-68
2022/09/06 05:24:42;;;;;;;3.93;1.60;;;13.60;1.00;;;;;;8349134;28;20305;-69
2022/09/06 05:28:43;;;;;;;3.80;1.83;;;13.60;11.40;;;;;;8348218;28;20214;-68
2022/09/06 05:32:44;;;;;;;2.93;1.70;;;13.50;99.90;;;;;;8350701;28;20256;-68
2022/09/06 05:36:45;;;;;;;2.70;1.70;;;13.40;99.90;;;;;;8350812;28;20262;-68
2022/09/06 05:40:45;;;;;;;2.47;1.60;;;13.40;99.90;;;;;;8344047;28;20190;-68
2022/09/06 05:44:46;;;;;;;2.07;1.40;;;13.30;99.90;;;;;;8352154;28;20186;-68
2022/09/06 05:48:54;;;;;;;2.97;1.80;;;13.40;97.10;;;;;;8352648;28;20221;-67
2022/09/06 05:52:55;;;;;;;4.17;2.47;;;13.40;41.10;;;;;;8348305;28;20527;-68
2022/09/06 05:56:56;;;;;;;5.43;2.23;;;13.60;1.00;;;;;;8342767;28;20182;-68
2022/09/06 06:01:13;;;;;;;6.37;1.70;;;13.80;1.00;;;;;;8346818;28;20182;-69
2022/09/06 06:05:15;;;;;;;5.30;3.63;;;13.90;1.00;;;;;;8379519;28;20192;-68
2022/09/06 06:09:16;;;;;;;6.00;3.13;;;14.10;1.00;;;;;;8351389;28;20283;-69
2022/09/06 06:13:17;;;;;;;4.30;3.37;;;14.30;99.90;;;;;;8345382;28;20296;-68
2022/09/06 06:17:18;;;;;;;5.43;2.20;;;14.60;99.90;;;;;;8344622;28;20191;-68
2022/09/06 06:21:24;;;;;;;6.17;2.20;;;14.90;99.90;;;;;;8348351;28;20245;-70
2022/09/06 06:25:25;;;;;;;10.40;3.60;;;15.00;99.90;;;;;;8347592;28;20384;-68
2022/09/06 06:29:26;;;;;;;3.70;2.50;;;15.00;99.90;;;;;;8342748;28;20205;-68
2022/09/06 06:33:27;;;;;;;6.37;2.73;;;14.90;99.90;;;;;;8345861;28;20177;-68
2022/09/06 06:37:28;;;;;;;5.93;3.67;;;14.90;99.90;;;;;;8349165;28;20276;-69
2022/09/06 06:41:30;;;;;;;4.87;2.23;;;15.10;99.90;;;;;;8345934;28;20181;-69
2022/09/06 06:45:31;;;;;;;3.47;2.37;;;15.20;99.90;;;;;;8347396;28;20529;-68
2022/09/06 06:49:32;;;;;;;4.83;2.30;;;15.40;99.90;;;;;;8346069;28;20201;-69
2022/09/06 06:53:34;;;;;;;6.17;3.40;;;15.50;99.90;;;;;;8348649;28;20182;-69
2022/09/06 06:57:34;;;;;;;4.33;3.27;;;15.60;99.90;;;;;;8353731;28;20186;-73
2022/09/06 07:01:36;;;;;;;4.63;3.17;;;15.80;99.90;;;;;;8346875;28;20189;-68
2022/09/06 07:05:38;;;;;;;3.70;2.57;;;16.00;99.90;;;;;;8346252;28;20193;-69
2022/09/06 07:09:39;;;;;;;4.30;3.07;;;16.20;99.90;;;;;;8351407;28;20197;-67
2022/09/06 07:13:40;;;;;;;5.47;2.77;;;16.40;99.90;;;;;;8343233;28;20201;-69
2022/09/06 07:17:40;;;;;;;14.43;8.07;;;16.60;99.90;;;;;;8342625;28;20336;-68
2022/09/06 07:21:41;;;;;;;6.07;3.43;;;16.80;99.90;;;;;;8345898;28;20204;-67
2022/09/06 07:25:42;;;;;;;6.33;2.37;;;17.00;99.90;;;;;;8361491;28;20189;-68
2022/09/06 07:29:46;;;;;;;7.17;2.10;;;17.20;99.90;;;;;;8343194;28;20248;-67
2022/09/06 07:33:47;;;;;;;4.47;2.40;;;17.30;99.90;;;;;;8358561;28;20184;-67
2022/09/06 07:38:03;;;;;;;6.33;2.37;;;17.50;99.90;;;;;;8337492;28;20272;-67
2022/09/06 07:42:05;;;;;;;3.73;2.80;;;17.70;99.90;;;;;;8346266;28;20827;-67
2022/09/06 07:46:08;;;;;;;4.27;2.67;;;17.80;99.90;;;;;;8349020;28;20277;-66
2022/09/06 07:50:09;;;;;;;4.40;2.90;;;17.90;99.90;;;;;;8343541;28;20206;-68
2022/09/06 07:54:10;;;;;;;3.50;2.07;;;18.00;99.90;;;;;;8341718;28;20185;-66
2022/09/06 07:58:11;;;;;;;3.00;2.43;;;18.00;99.90;;;;;;8349926;28;20192;-67
2022/09/06 08:02:11;;;;;;;3.73;2.50;;;18.10;99.90;;;;;;8341818;28;20190;-68
2022/09/06 08:06:13;;;;;;;5.40;3.30;;;18.20;99.90;;;;;;8343207;28;20272;-67
2022/09/06 08:10:14;;;;;;;4.63;2.97;;;18.40;99.90;;;;;;8346398;28;20193;-68
2022/09/06 08:14:14;;;;;;;3.53;2.40;;;18.60;95.40;;;;;;8342538;28;20217;-67
2022/09/06 08:18:15;;;;;;;7.77;3.17;;;18.50;94.80;;;;;;8342645;28;20181;-67
2022/09/06 08:22:16;;;;;;;5.10;2.87;;;18.50;99.90;;;;;;8344247;28;20200;-67
2022/09/06 08:26:19;;;;;;;4.70;2.70;;;18.50;99.90;;;;;;8347876;28;20239;-66
2022/09/06 08:30:20;;;;;;;4.77;2.40;;;18.80;99.90;;;;;;8344378;28;20192;-67
2022/09/06 08:34:21;;;;;;;4.33;2.83;;;19.10;99.80;;;;;;8342645;28;20285;-66
2022/09/06 08:38:22;;;;;;;4.57;2.60;;;19.10;99.90;;;;;;8344689;28;20181;-67
2022/09/06 08:42:23;;;;;;;9.27;2.93;;;19.00;99.90;;;;;;8343710;28;20217;-67
2022/09/06 08:46:36;;;;;;;3.83;2.57;;;19.00;99.90;;;;;;8346616;28;20182;-68
2022/09/06 08:50:42;;;;;;;5.53;2.87;;;19.10;99.90;;;;;;8344132;28;20271;-68
2022/09/06 08:54:58;;;;;;;5.03;3.10;;;19.20;99.90;;;;;;8352922;28;20182;-69
2022/09/06 08:59:05;;;;;;;4.37;2.97;;;19.40;99.90;;;;;;8356502;28;20239;-67
2022/09/06 09:03:08;;;;;;;6.07;3.10;;;19.50;97.40;;;;;;8337082;28;20190;-67
2022/09/06 09:07:35;;;;;;;6.97;3.03;;;19.50;99.90;;;;;;8341289;28;20292;-68
2022/09/06 09:11:41;;;;;;;6.37;3.53;;;20.00;96.30;;;;;;8346511;28;20564;-68
2022/09/06 09:15:41;;;;;;;4.87;3.50;;;20.50;58.90;;;;;;8350570;28;20182;-68
2022/09/06 09:19:43;;;;;;;6.30;3.17;;;20.80;30.70;;;;;;8348459;28;20212;-68
2022/09/06 09:23:57;;;;;;;4.70;3.00;;;20.80;42.20;;;;;;8350595;28;20236;-69
2022/09/06 09:28:13;;;;;;;4.43;2.93;;;21.20;26.40;;;;;;8340871;28;20210;-68
2022/09/06 09:32:35;;;;;;;4.13;3.50;;;21.40;1.80;;;;;;8346219;28;20173;-67
2022/09/06 09:36:37;;;;;;;3.93;3.40;;;21.30;1.90;;;;;;8349178;28;20275;-67
2022/09/06 09:40:51;;;;;;;5.67;3.40;;;21.20;4.70;;;;;;8347445;28;20189;-67
2022/09/06 09:44:52;;;;;;;6.80;2.73;;;21.30;2.70;;;;;;8365965;28;20190;-68
2022/09/06 09:49:09;;;;;;;5.80;3.33;;;21.30;1.80;;;;;;8347762;28;20210;-64
2022/09/06 09:53:13;;;;;;;4.87;2.80;;;21.20;1.00;;;;;;8338426;28;20174;-66
2022/09/06 09:57:17;;;;;;;5.60;2.93;;;21.00;24.90;;;;;;8348302;28;20181;-66
2022/09/06 10:01:24;;;;;;;3.77;2.80;;;21.10;9.70;;;;;;8346137;28;20188;-66
2022/09/06 10:05:26;;;;;;;4.30;3.07;;;21.20;22.90;;;;;;8347578;28;20189;-68
2022/09/06 10:09:35;;;;;;;7.37;3.20;;;21.60;1.00;;;;;;8347690;28;20209;-68
2022/09/06 10:13:36;;;;;;;7.20;3.53;;;21.80;1.00;;;;;;8350007;28;20205;-68
2022/09/06 10:17:47;;;;;;;4.97;3.40;;;22.00;1.00;;;;;;8347665;28;20188;-67
2022/09/06 10:21:52;;;;;;;5.30;3.20;;;21.80;1.00;;;;;;8350803;28;20225;-67
2022/09/06 10:26:11;;;;;;;4.70;2.70;;;21.60;1.00;;;;;;8346990;28;20186;-67
2022/09/06 10:30:13;;;;;;;4.73;2.77;;;21.60;1.00;;;;;;8343184;28;20209;-67
2022/09/06 10:34:16;;;;;;;7.20;3.37;;;21.60;1.00;;;;;;8346031;28;20259;-66
2022/09/06 10:38:26;;;;;;;7.70;2.70;;;21.60;1.00;;;;;;8348350;28;20186;-67
2022/09/06 10:42:46;;;;;;;7.97;3.10;;;21.60;1.00;;;;;;8345527;28;20204;-66
2022/09/06 10:46:53;;;;;;;5.63;2.90;;;21.90;1.00;;;;;;8345046;28;20209;-67
2022/09/06 10:51:20;;;;;;;3.63;2.77;;;21.90;1.00;;;;;;8345349;28;20241;-66
2022/09/06 10:55:22;;;;;;;4.80;2.70;;;21.90;1.00;;;;;;8344387;28;21037;-66
2022/09/06 10:59:35;;;;;;;3.10;2.60;;;21.90;1.00;;;;;;8346577;28;20209;-66
2022/09/06 11:03:41;;;;;;;4.83;2.60;;;21.90;1.00;;;;;;8341627;28;20182;-67
2022/09/06 11:07:44;;;;;;;5.87;3.27;;;21.90;1.00;;;;;;8345116;28;20209;-67
2022/09/06 11:11:59;;;;;;;4.17;3.10;;;22.00;1.00;;;;;;8348699;28;20197;-67
2022/09/06 11:16:27;;;;;;;8.73;3.63;;;21.80;1.00;;;;;;8342683;28;20174;-65
2022/09/06 11:20:41;;;;;;;4.97;3.37;;;21.80;1.00;;;;;;8344647;28;20425;-65
2022/09/06 11:25:03;;;;;;;7.30;2.93;;;21.90;1.00;;;;;;8349633;28;20192;-66
2022/09/06 11:29:17;;;;;;;5.57;3.13;;;22.20;1.00;;;;;;8348023;28;20347;-66
2022/09/06 11:33:26;;;;;;;7.47;4.10;;;22.50;1.00;;;;;;8344997;28;20260;-67
2022/09/06 11:37:32;;;;;;;3.70;2.80;;;22.80;1.00;;;;;;8361356;28;20189;-66
2022/09/06 11:41:39;;;;;;;4.07;2.70;;;23.00;1.00;;;;;;8344683;28;20264;-65
2022/09/06 11:45:42;;;;;;;3.50;2.40;;;23.00;1.00;;;;;;8352119;28;20192;-67
2022/09/06 11:49:43;;;;;;;4.07;2.77;;;23.00;1.00;;;;;;8348389;28;20507;-67
2022/09/06 11:53:50;;;;;;;3.67;2.00;;;23.10;1.00;;;;;;8344877;28;20182;-67
2022/09/06 11:57:56;;;;;;;4.83;2.60;;;22.90;1.00;;;;;;8346530;28;20214;-67
2022/09/06 12:02:01;;;;;;;9.90;4.00;;;22.80;1.00;;;;;;8342627;28;20198;-66
2022/09/06 12:06:26;;;;;;;8.37;2.43;;;22.70;1.00;;;;;;8340987;28;20220;-68
2022/09/06 12:10:30;;;;;;;8.80;3.93;;;22.60;1.00;;;;;;8343727;28;20193;-66
2022/09/06 12:14:44;;;;;;;5.23;2.63;;;22.60;1.00;;;;;;8335457;28;20224;-66
2022/09/06 12:18:48;;;;;;;7.27;2.37;;;22.70;1.00;;;;;;8363438;28;20278;-66
2022/09/06 12:22:51;;;;;;;14.57;7.47;;;22.90;1.00;;;;;;8337832;28;20190;-66
2022/09/06 12:27:11;;;;;;;4.77;3.00;;;23.20;1.00;;;;;;8341861;28;20206;-66
2022/09/06 12:31:24;;;;;;;6.43;2.50;;;23.40;1.00;;;;;;8342114;28;20190;-66
2022/09/06 12:35:29;;;;;;;11.10;4.30;;;23.50;1.00;;;;;;8341415;28;20216;-66
2022/09/06 12:39:30;;;;;;;4.40;2.60;;;23.40;1.00;;;;;;8345151;28;20189;-66
2022/09/06 12:43:34;;;;;;;3.03;2.10;;;23.50;1.00;;;;;;8345011;28;20185;-66
2022/09/06 12:47:38;;;;;;;2.97;2.10;;;23.40;1.00;;;;;;8345443;28;20206;-66
2022/09/06 12:51:40;;;;;;;3.17;2.20;;;23.30;1.00;;;;;;8366918;28;20189;-66
2022/09/06 12:55:41;;;;;;;6.23;2.00;;;23.30;1.00;;;;;;8361573;28;20190;-66
2022/09/06 12:59:52;;;;;;;4.67;2.23;;;23.30;1.00;;;;;;8353630;28;20221;-66
2022/09/06 13:04:02;;;;;;;2.60;1.97;;;23.20;1.00;;;;;;8347737;28;20258;-65
2022/09/06 13:08:03;;;;;;;5.87;2.00;;;23.10;1.00;;;;;;8350170;28;20259;-66
2022/09/06 13:12:12;;;;;;;3.60;2.10;;;23.30;1.00;;;;;;8349479;28;20233;-67
2022/09/06 13:16:25;;;;;;;6.23;2.50;;;23.60;1.00;;;;;;8385167;28;20181;-67
2022/09/06 13:20:28;;;;;;;4.77;2.30;;;23.60;1.00;;;;;;8349652;28;20209;-66
2022/09/06 13:24:46;;;;;;;3.67;2.23;;;23.50;1.00;;;;;;8349047;28;20197;-66
2022/09/06 13:28:46;;;;;;;3.23;2.37;;;23.00;1.00;;;;;;8347721;28;20558;-66
2022/09/06 13:32:47;;;;;;;2.90;2.00;;;22.70;1.00;;;;;;8350408;28;20251;-67
2022/09/06 13:36:54;;;;;;;5.23;2.13;;;22.40;1.00;;;;;;8354400;28;20255;-67
2022/09/06 13:40:55;;;;;;;4.80;2.07;;;22.50;1.00;;;;;;8367191;28;20182;-67
2022/09/06 13:44:56;;;;;;;5.33;2.77;;;22.50;1.00;;;;;;8349359;28;20281;-67
2022/09/06 13:48:57;;;;;;;3.60;2.13;;;22.60;1.00;;;;;;8349877;28;20197;-66
2022/09/06 13:52:58;;;;;;;4.90;2.20;;;22.60;1.00;;;;;;8379237;28;20180;-68
2022/09/06 13:57:00;;;;;;;6.77;2.30;;;22.50;1.00;;;;;;8346306;28;20213;-68
2022/09/06 14:01:01;;;;;;;3.90;2.00;;;22.40;1.00;;;;;;8354425;28;20655;-67
2022/09/06 14:05:02;;;;;;;2.70;2.07;;;22.20;1.00;;;;;;8350749;28;20260;-70
2022/09/06 14:09:03;;;;;;;5.00;2.90;;;22.20;1.00;;;;;;8350108;28;20279;-67
2022/09/06 14:13:04;;;;;;;5.60;2.37;;;22.30;1.00;;;;;;8348359;28;20207;-67
2022/09/06 14:17:05;;;;;;;4.67;2.00;;;22.40;1.00;;;;;;8347992;28;20268;-68
2022/09/06 14:21:06;;;;;;;3.07;2.10;;;22.40;1.00;;;;;;8348157;28;20209;-67
2022/09/06 14:25:08;;;;;;;5.00;2.30;;;22.30;1.00;;;;;;8347101;28;20554;-68
2022/09/06 14:29:09;;;;;;;3.50;2.17;;;22.30;1.00;;;;;;8342091;28;20210;-68
2022/09/06 14:33:09;;;;;;;5.17;2.27;;;22.30;1.00;;;;;;8343306;28;20193;-68
2022/09/06 14:37:10;;;;;;;6.20;2.40;;;22.30;1.00;;;;;;8349784;28;20198;-67
2022/09/06 14:41:13;;;;;;;2.43;2.03;;;22.50;1.00;;;;;;8346201;28;20189;-68
2022/09/06 14:45:14;;;;;;;4.43;2.27;;;22.70;1.00;;;;;;8345589;28;20193;-68
2022/09/06 14:49:15;;;;;;;5.50;2.37;;;22.80;1.00;;;;;;8349132;28;20274;-66
2022/09/06 14:53:16;;;;;;;2.83;2.07;;;22.70;1.00;;;;;;8346950;28;20197;-68
2022/09/06 14:57:16;;;;;;;3.67;2.50;;;22.60;1.00;;;;;;8347258;28;20676;-67
2022/09/06 15:01:20;;;;;;;2.73;2.03;;;22.50;1.00;;;;;;8343528;28;20189;-67
2022/09/06 15:05:21;;;;;;;4.37;1.90;;;22.40;1.00;;;;;;8347495;28;20182;-69
2022/09/06 15:09:23;;;;;;;5.23;2.23;;;22.30;1.00;;;;;;8343604;28;20275;-68
2022/09/06 15:13:25;;;;;;;3.73;2.13;;;22.30;1.00;;;;;;8359174;28;20202;-68
2022/09/06 15:17:26;;;;;;;3.70;2.40;;;22.40;1.00;;;;;;8346119;28;20253;-68
2022/09/06 15:21:27;;;;;;;5.37;2.30;;;22.30;1.00;;;;;;8347810;28;20196;-68
2022/09/06 15:25:28;;;;;;;4.90;2.53;;;22.50;1.00;;;;;;8345615;28;20214;-68
2022/09/06 15:29:28;;;;;;;5.17;2.10;;;22.80;1.00;;;;;;8347754;28;20201;-67
2022/09/06 15:33:30;;;;;;;4.17;2.30;;;22.90;1.00;;;;;;8344559;28;20181;-67
2022/09/06 15:37:31;;;;;;;4.53;2.67;;;22.80;1.00;;;;;;8348649;28;20221;-67
2022/09/06 15:41:35;;;;;;;5.60;2.73;;;22.60;1.00;;;;;;8349189;28;20311;-68
2022/09/06 15:45:48;;;;;;;4.47;2.40;;;22.30;1.00;;;;;;8344871;28;20221;-67
2022/09/06 15:49:49;;;;;;;3.13;2.20;;;22.10;1.00;;;;;;8339934;28;20209;-67
2022/09/06 15:53:50;;;;;;;5.50;2.73;;;21.90;1.00;;;;;;8345961;28;20273;-69
2022/09/06 15:57:51;;;;;;;4.80;2.10;;;21.70;1.00;;;;;;8347910;28;20270;-67
2022/09/06 16:01:52;;;;;;;3.53;2.40;;;21.60;1.00;;;;;;8342982;28;20247;-68
2022/09/06 16:05:52;;;;;;;5.13;1.97;;;21.60;1.00;;;;;;8344557;28;20197;-68
2022/09/06 16:09:53;;;;;;;3.13;2.10;;;21.50;1.00;;;;;;8346888;28;20355;-68
2022/09/06 16:13:54;;;;;;;4.23;2.37;;;21.40;1.00;;;;;;8345383;28;20238;-68
2022/09/06 16:17:56;;;;;;;3.27;2.00;;;21.30;1.00;;;;;;8349333;28;20193;-68
2022/09/06 16:21:58;;;;;;;2.93;2.03;;;21.30;1.00;;;;;;8346512;28;20233;-68
2022/09/06 16:25:58;;;;;;;3.40;2.00;;;21.10;1.00;;;;;;8351889;28;20197;-68
2022/09/06 16:29:59;;;;;;;6.23;2.33;;;20.90;1.00;;;;;;8347795;28;20656;-67
2022/09/06 16:34:00;;;;;;;4.47;2.80;;;20.70;1.00;;;;;;8351837;28;20177;-68
2022/09/06 16:38:01;;;;;;;4.27;2.93;;;20.60;1.00;;;;;;8352898;28;20185;-69
2022/09/06 16:42:02;;;;;;;8.20;3.40;;;20.40;1.00;;;;;;8351520;28;20224;-67
2022/09/06 16:46:04;;;;;;;4.33;2.77;;;20.30;1.00;;;;;;8352711;28;20186;-68
2022/09/06 16:50:05;;;;;;;3.90;2.07;;;20.10;1.00;;;;;;8358187;28;20217;-68
2022/09/06 16:54:05;;;;;;;4.73;2.30;;;19.90;1.00;;;;;;8350873;28;20185;-68
2022/09/06 16:58:06;;;;;;;3.83;2.47;;;19.70;1.00;;;;;;8353573;28;20198;-68
2022/09/06 17:02:07;;;;;;;2.43;2.00;;;19.60;11.10;;;;;;8350645;28;20235;-68
2022/09/06 17:06:08;;;;;;;3.93;2.50;;;19.40;14.40;;;;;;8348010;28;20231;-68
2022/09/06 17:10:09;;;;;;;3.13;2.33;;;19.30;18.20;;;;;;8351519;28;20210;-68
2022/09/06 17:14:10;;;;;;;5.80;3.50;;;19.20;19.80;;;;;;8349602;28;20206;-68
2022/09/06 17:18:11;;;;;;;4.20;2.40;;;19.00;43.50;;;;;;8351004;28;20193;-67
2022/09/06 17:22:12;;;;;;;3.23;2.17;;;18.90;40.10;;;;;;8352374;28;20202;-68
2022/09/06 17:26:13;;;;;;;4.87;3.50;;;18.70;52.70;;;;;;8350859;28;20194;-68
2022/09/06 17:30:14;;;;;;;24.27;22.00;;;18.60;56.40;;;;;;8349793;28;20215;-68
2022/09/06 17:34:15;;;;;;;10.77;9.70;;;18.50;67.90;;;;;;8380194;28;20186;-68
2022/09/06 17:38:16;;;;;;;5.23;4.13;;;18.30;77.90;;;;;;8352257;28;20268;-68
2022/09/06 17:42:17;;;;;;;31.37;26.40;;;18.20;91.90;;;;;;8355866;28;20205;-68
2022/09/06 17:46:18;;;;;;;8.30;6.40;;;18.20;95.10;;;;;;8352036;28;20209;-69
2022/09/06 17:50:19;;;;;;;4.40;2.60;;;18.10;99.90;;;;;;8348677;28;20213;-68
2022/09/06 17:54:20;;;;;;;5.33;2.37;;;17.90;99.90;;;;;;8346528;28;20193;-68
2022/09/06 17:58:21;;;;;;;5.47;2.93;;;17.80;99.90;;;;;;8348853;28;20253;-69
2022/09/06 18:02:22;;;;;;;5.93;3.50;;;17.70;99.90;;;;;;8349203;28;20193;-69
2022/09/06 18:06:24;;;;;;;10.40;3.70;;;17.60;99.90;;;;;;8346817;28;20185;-68
2022/09/06 18:10:25;;;;;;;5.53;3.77;;;17.40;99.90;;;;;;8348657;28;20213;-68
2022/09/06 18:14:27;;;;;;;17.33;15.53;;;17.20;99.90;;;;;;8349657;28;20285;-68
2022/09/06 18:18:30;;;;;;;68.13;49.50;;;17.10;99.90;;;;;;8351938;28;20254;-68
2022/09/06 18:22:31;;;;;;;33.53;29.77;;;16.90;99.90;;;;;;8349404;28;20621;-68
2022/09/06 18:26:32;;;;;;;9.97;6.63;;;16.90;99.90;;;;;;8348273;28;20186;-68
2022/09/06 18:30:33;;;;;;;7.23;5.27;;;16.90;99.90;;;;;;8346728;28;20240;-68
2022/09/06 18:34:34;;;;;;;6.53;2.90;;;16.80;99.90;;;;;;8347201;28;20565;-69
2022/09/06 18:38:36;;;;;;;6.00;3.07;;;16.80;99.90;;;;;;8347885;28;20198;-68
2022/09/06 18:42:42;;;;;;;4.30;3.57;;;16.70;99.90;;;;;;8348319;28;20185;-68
2022/09/06 18:46:43;;;;;;;6.17;3.80;;;16.70;99.90;;;;;;8346008;28;20189;-68
2022/09/06 18:50:44;;;;;;;3.93;2.93;;;16.60;99.90;;;;;;8350630;28;20193;-69
2022/09/06 18:54:45;;;;;;;5.87;2.80;;;16.60;99.90;;;;;;8346609;28;20285;-68
2022/09/06 18:58:46;;;;;;;9.27;4.30;;;16.60;99.90;;;;;;8349027;28;20272;-68
2022/09/06 19:02:47;;;;;;;7.03;2.53;;;16.50;99.90;;;;;;8342711;28;20186;-68
2022/09/06 19:06:48;;;;;;;3.60;2.57;;;16.40;99.90;;;;;;8344782;28;20193;-68
2022/09/06 19:11:02;;;;;;;10.77;5.80;;;16.20;99.90;;;;;;8347499;28;20256;-68
2022/09/06 19:15:03;;;;;;;6.33;3.77;;;16.10;99.90;;;;;;8346442;28;20186;-68
2022/09/06 19:19:07;;;;;;;9.73;4.23;;;16.00;99.90;;;;;;8350247;28;20221;-69
2022/09/06 19:23:08;;;;;;;5.87;4.60;;;15.90;99.90;;;;;;8354805;28;20194;-68
2022/09/06 19:27:10;;;;;;;4.53;4.13;;;15.80;99.90;;;;;;8346795;28;20233;-68
2022/09/06 19:31:13;;;;;;;2.53;2.23;;;15.70;99.90;;;;;;8349358;28;20182;-68
2022/09/06 19:35:14;;;;;;;6.20;3.27;;;15.60;99.90;;;;;;8347245;28;20231;-68
2022/09/06 19:39:15;;;;;;;18.03;8.57;;;15.60;99.90;;;;;;8347641;28;20185;-68
2022/09/06 19:43:16;;;;;;;6.97;3.30;;;15.60;99.90;;;;;;8343085;28;20276;-68
2022/09/06 19:47:17;;;;;;;4.20;2.27;;;15.60;99.90;;;;;;8345056;28;20226;-69
2022/09/06 19:51:19;;;;;;;4.60;2.07;;;15.50;99.90;;;;;;8345088;28;20189;-68
2022/09/06 19:55:20;;;;;;;3.93;1.90;;;15.40;99.90;;;;;;8345945;28;20185;-68
2022/09/06 19:59:20;;;;;;;3.80;2.03;;;15.40;99.90;;;;;;8346779;28;21677;-68
2022/09/06 20:03:21;;;;;;;3.87;1.80;;;15.50;99.90;;;;;;8343247;28;20189;-68
2022/09/06 20:07:22;;;;;;;3.53;2.23;;;15.60;99.90;;;;;;8347477;28;20209;-68
2022/09/06 20:11:26;;;;;;;3.97;2.10;;;15.60;99.90;;;;;;8346788;28;20560;-67
2022/09/06 20:15:28;;;;;;;4.87;2.00;;;15.70;99.90;;;;;;8343379;28;20189;-68
2022/09/06 20:19:28;;;;;;;3.20;1.70;;;15.80;99.90;;;;;;8346235;28;20229;-68
2022/09/06 20:23:33;;;;;;;5.17;1.90;;;15.80;99.90;;;;;;8343064;28;20206;-68
2022/09/06 20:27:34;;;;;;;4.60;2.00;;;15.80;99.90;;;;;;8345637;28;20259;-67
2022/09/06 20:31:36;;;;;;;3.37;2.50;;;15.80;99.90;;;;;;8344887;28;20510;-67
2022/09/06 20:35:37;;;;;;;2.87;1.73;;;15.70;99.90;;;;;;8344223;28;20244;-68
2022/09/06 20:39:38;;;;;;;6.17;1.77;;;15.60;99.90;;;;;;8342734;28;20194;-68
2022/09/06 20:43:41;;;;;;;4.23;1.77;;;15.60;99.90;;;;;;8342646;28;20493;-68
2022/09/06 20:47:42;;;;;;;3.40;1.50;;;15.50;99.90;;;;;;8342640;28;20297;-68
2022/09/06 20:51:43;;;;;;;2.50;1.80;;;15.50;99.90;;;;;;8343526;28;20217;-69
2022/09/06 20:55:44;;;;;;;2.77;1.70;;;15.50;99.90;;;;;;8344977;28;20186;-68
2022/09/06 20:59:44;;;;;;;3.07;1.57;;;15.60;99.90;;;;;;8344066;28;20190;-68
2022/09/06 21:03:45;;;;;;;2.97;2.00;;;15.70;99.90;;;;;;8340820;28;20229;-68
2022/09/06 21:07:46;;;;;;;5.10;1.60;;;15.80;99.90;;;;;;8344851;28;20217;-68
2022/09/06 21:11:50;;;;;;;3.07;1.40;;;15.90;99.90;;;;;;8350036;28;20312;-68
2022/09/06 21:15:51;;;;;;;4.20;1.70;;;16.00;99.90;;;;;;8348773;28;20212;-68